sensor_id;sensor_type;location;lat;lon;timestamp;temperature;humidity
20845;DHT22;10583;49.084;8.646;2023-06-10T00:00:09;16.60;99.90
20845;DHT22;10583;49.084;8.646;2023-06-10T00:02:40;16.50;99.90
20845;DHT22;10583;49.084;8.646;2023-06-10T00:05:09;16.50;99.90
20845;DHT22;10583;49.084;8.646;2023-06-10T00:07:38;16.40;99.90
20845;DHT22;10583;49.084;8.646;2023-06-10T00:10:07;16.40;99.90
20845;DHT22;10583;49.084;8.646;2023-06-10T00:12:36;16.30;99.90
20845;DHT22;10583;49.084;8.646;2023-06-10T00:15:07;16.30;99.90
20845;DHT22;10583;49.084;8.646;2023-06-10T00:17:34;16.20;99.90
20845;DHT22;10583;49.084;8.646;2023-06-10T00:20:06;16.20;99.90
20845;DHT22;10583;49.084;8.646;2023-06-10T00:22:34;16.10;99.90
20845;DHT22;10583;49.084;8.646;2023-06-10T00:25:01;16.10;99.90
20845;DHT22;10583;49.084;8.646;2023-06-10T00:27:29;16.20;99.90
20845;DHT22;10583;49.084;8.646;2023-06-10T00:30:00;16.10;99.90
20845;DHT22;10583;49.084;8.646;2023-06-10T00:32:29;16.10;99.90
20845;DHT22;10583;49.084;8.646;2023-06-10T00:34:56;16.10;99.90
20845;DHT22;10583;49.084;8.646;2023-06-10T00:37:22;16.00;99.90
20845;DHT22;10583;49.084;8.646;2023-06-10T00:39:49;16.10;99.90
20845;DHT22;10583;49.084;8.646;2023-06-10T00:42:17;16.10;99.90
20845;DHT22;10583;49.084;8.646;2023-06-10T00:44:44;16.00;99.90
20845;DHT22;10583;49.084;8.646;2023-06-10T00:47:11;16.00;99.90
20845;DHT22;10583;49.084;8.646;2023-06-10T00:49:40;15.90;99.90
20845;DHT22;10583;49.084;8.646;2023-06-10T00:52:08;15.80;99.90
20845;DHT22;10583;49.084;8.646;2023-06-10T00:54:36;15.80;99.90
20845;DHT22;10583;49.084;8.646;2023-06-10T00:57:04;15.80;99.90
20845;DHT22;10583;49.084;8.646;2023-06-10T00:59:32;15.70;99.90
20845;DHT22;10583;49.084;8.646;2023-06-10T01:02:00;15.60;99.90
20845;DHT22;10583;49.084;8.646;2023-06-10T01:04:27;15.60;99.90
20845;DHT22;10583;49.084;8.646;2023-06-10T01:07:00;15.50;99.90
20845;DHT22;10583;49.084;8.646;2023-06-10T01:09:46;15.50;99.90
20845;DHT22;10583;49.084;8.646;2023-06-10T01:12:20;15.50;99.90
20845;DHT22;10583;49.084;8.646;2023-06-10T01:14:50;15.40;99.90
20845;DHT22;10583;49.084;8.646;2023-06-10T01:17:18;15.40;99.90
20845;DHT22;10583;49.084;8.646;2023-06-10T01:19:53;15.30;99.90
20845;DHT22;10583;49.084;8.646;2023-06-10T01:22:23;15.20;99.90
20845;DHT22;10583;49.084;8.646;2023-06-10T01:24:50;15.20;99.90
20845;DHT22;10583;49.084;8.646;2023-06-10T01:27:19;15.20;99.90
20845;DHT22;10583;49.084;8.646;2023-06-10T01:29:53;15.20;99.90
20845;DHT22;10583;49.084;8.646;2023-06-10T01:32:26;15.10;99.90
20845;DHT22;10583;49.084;8.646;2023-06-10T01:34:54;15.10;99.90
20845;DHT22;10583;49.084;8.646;2023-06-10T01:37:24;15.00;99.90
20845;DHT22;10583;49.084;8.646;2023-06-10T01:39:55;14.90;99.90
20845;DHT22;10583;49.084;8.646;2023-06-10T01:42:23;14.90;99.90
20845;DHT22;10583;49.084;8.646;2023-06-10T01:44:51;14.90;99.90
20845;DHT22;10583;49.084;8.646;2023-06-10T01:47:18;14.90;99.90
20845;DHT22;10583;49.084;8.646;2023-06-10T01:49:45;14.90;99.90
20845;DHT22;10583;49.084;8.646;2023-06-10T01:52:12;14.80;99.90
20845;DHT22;10583;49.084;8.646;2023-06-10T01:54:40;14.80;99.90
20845;DHT22;10583;49.084;8.646;2023-06-10T01:57:07;14.90;99.90
20845;DHT22;10583;49.084;8.646;2023-06-10T01:59:35;14.80;99.90
20845;DHT22;10583;49.084;8.646;2023-06-10T02:02:03;14.80;99.90
20845;DHT22;10583;49.084;8.646;2023-06-10T02:04:30;14.80;99.90
20845;DHT22;10583;49.084;8.646;2023-06-10T02:06:57;14.60;99.90
20845;DHT22;10583;49.084;8.646;2023-06-10T02:09:25;14.60;99.90
20845;DHT22;10583;49.084;8.646;2023-06-10T02:11:53;14.60;99.90
20845;DHT22;10583;49.084;8.646;2023-06-10T02:14:21;14.50;99.90
20845;DHT22;10583;49.084;8.646;2023-06-10T02:16:48;14.50;99.90
20845;DHT22;10583;49.084;8.646;2023-06-10T02:19:14;14.60;99.90
20845;DHT22;10583;49.084;8.646;2023-06-10T02:21:42;14.50;99.90
20845;DHT22;10583;49.084;8.646;2023-06-10T02:24:09;14.50;99.90
20845;DHT22;10583;49.084;8.646;2023-06-10T02:26:36;14.50;99.90
20845;DHT22;10583;49.084;8.646;2023-06-10T02:29:04;14.40;99.90
20845;DHT22;10583;49.084;8.646;2023-06-10T02:31:31;14.50;99.90
20845;DHT22;10583;49.084;8.646;2023-06-10T02:34:01;14.50;99.90
20845;DHT22;10583;49.084;8.646;2023-06-10T02:36:28;14.50;99.90
20845;DHT22;10583;49.084;8.646;2023-06-10T02:38:55;14.50;99.90
20845;DHT22;10583;49.084;8.646;2023-06-10T02:41:22;14.50;99.90
20845;DHT22;10583;49.084;8.646;2023-06-10T02:43:50;14.50;99.90
20845;DHT22;10583;49.084;8.646;2023-06-10T02:46:18;14.40;99.90
20845;DHT22;10583;49.084;8.646;2023-06-10T02:48:46;14.40;99.90
20845;DHT22;10583;49.084;8.646;2023-06-10T02:51:15;14.20;99.90
20845;DHT22;10583;49.084;8.646;2023-06-10T02:53:41;14.20;99.90
20845;DHT22;10583;49.084;8.646;2023-06-10T02:56:08;14.10;99.90
20845;DHT22;10583;49.084;8.646;2023-06-10T02:58:35;14.20;99.90
20845;DHT22;10583;49.084;8.646;2023-06-10T03:01:02;14.30;99.90
20845;DHT22;10583;49.084;8.646;2023-06-10T03:03:30;14.30;99.90
20845;DHT22;10583;49.084;8.646;2023-06-10T03:05:59;14.30;99.90
20845;DHT22;10583;49.084;8.646;2023-06-10T03:08:26;14.30;99.90
20845;DHT22;10583;49.084;8.646;2023-06-10T03:10:53;14.30;99.90
20845;DHT22;10583;49.084;8.646;2023-06-10T03:13:20;14.30;99.90
20845;DHT22;10583;49.084;8.646;2023-06-10T03:15:47;14.30;99.90
20845;DHT22;10583;49.084;8.646;2023-06-10T03:18:14;14.20;99.90
20845;DHT22;10583;49.084;8.646;2023-06-10T03:20:43;14.20;99.90
20845;DHT22;10583;49.084;8.646;2023-06-10T03:23:10;14.20;99.90
20845;DHT22;10583;49.084;8.646;2023-06-10T03:25:37;14.30;99.90
20845;DHT22;10583;49.084;8.646;2023-06-10T03:28:04;14.30;99.90
20845;DHT22;10583;49.084;8.646;2023-06-10T03:30:31;14.30;99.90
20845;DHT22;10583;49.084;8.646;2023-06-10T03:32:58;14.30;99.90
20845;DHT22;10583;49.084;8.646;2023-06-10T03:35:25;14.30;99.90
20845;DHT22;10583;49.084;8.646;2023-06-10T03:37:53;14.30;99.90
20845;DHT22;10583;49.084;8.646;2023-06-10T03:40:20;14.30;99.90
20845;DHT22;10583;49.084;8.646;2023-06-10T03:42:47;14.30;99.90
20845;DHT22;10583;49.084;8.646;2023-06-10T03:45:14;14.30;99.90
20845;DHT22;10583;49.084;8.646;2023-06-10T03:47:41;14.40;99.90
20845;DHT22;10583;49.084;8.646;2023-06-10T03:50:09;14.40;99.90
20845;DHT22;10583;49.084;8.646;2023-06-10T03:52:38;14.40;99.90
20845;DHT22;10583;49.084;8.646;2023-06-10T03:55:07;14.40;99.90
20845;DHT22;10583;49.084;8.646;2023-06-10T03:57:34;14.40;99.90
20845;DHT22;10583;49.084;8.646;2023-06-10T04:00:01;14.40;99.90
20845;DHT22;10583;49.084;8.646;2023-06-10T04:02:32;14.40;99.90
20845;DHT22;10583;49.084;8.646;2023-06-10T04:05:00;14.40;99.90
20845;DHT22;10583;49.084;8.646;2023-06-10T04:07:28;14.50;99.90
20845;DHT22;10583;49.084;8.646;2023-06-10T04:09:56;14.50;99.90
20845;DHT22;10583;49.084;8.646;2023-06-10T04:12:24;14.50;99.90
20845;DHT22;10583;49.084;8.646;2023-06-10T04:14:51;14.60;99.90
20845;DHT22;10583;49.084;8.646;2023-06-10T04:17:18;14.60;99.90
20845;DHT22;10583;49.084;8.646;2023-06-10T04:19:45;14.80;99.90
20845;DHT22;10583;49.084;8.646;2023-06-10T04:22:12;14.80;99.90
20845;DHT22;10583;49.084;8.646;2023-06-10T04:24:39;14.90;99.90
20845;DHT22;10583;49.084;8.646;2023-06-10T04:27:07;14.90;99.90
20845;DHT22;10583;49.084;8.646;2023-06-10T04:29:35;15.00;99.90
20845;DHT22;10583;49.084;8.646;2023-06-10T04:32:03;15.10;99.90
20845;DHT22;10583;49.084;8.646;2023-06-10T04:34:32;15.20;99.90
20845;DHT22;10583;49.084;8.646;2023-06-10T04:36:59;15.30;99.90
20845;DHT22;10583;49.084;8.646;2023-06-10T04:39:26;15.40;99.90
20845;DHT22;10583;49.084;8.646;2023-06-10T04:41:53;15.50;99.90
20845;DHT22;10583;49.084;8.646;2023-06-10T04:44:20;15.60;99.90
20845;DHT22;10583;49.084;8.646;2023-06-10T04:46:48;15.80;99.90
20845;DHT22;10583;49.084;8.646;2023-06-10T04:49:15;15.90;99.90
20845;DHT22;10583;49.084;8.646;2023-06-10T04:51:42;16.00;99.90
20845;DHT22;10583;49.084;8.646;2023-06-10T04:54:09;16.10;99.90
20845;DHT22;10583;49.084;8.646;2023-06-10T04:56:36;16.30;99.90
20845;DHT22;10583;49.084;8.646;2023-06-10T04:59:04;16.30;99.90
20845;DHT22;10583;49.084;8.646;2023-06-10T05:01:31;16.50;99.90
20845;DHT22;10583;49.084;8.646;2023-06-10T05:04:00;16.60;99.90
20845;DHT22;10583;49.084;8.646;2023-06-10T05:06:27;16.70;99.90
20845;DHT22;10583;49.084;8.646;2023-06-10T05:08:54;16.90;99.90
20845;DHT22;10583;49.084;8.646;2023-06-10T05:11:20;17.00;99.90
20845;DHT22;10583;49.084;8.646;2023-06-10T05:13:47;17.10;99.90
20845;DHT22;10583;49.084;8.646;2023-06-10T05:16:14;17.20;99.90
20845;DHT22;10583;49.084;8.646;2023-06-10T05:18:41;17.30;99.90
20845;DHT22;10583;49.084;8.646;2023-06-10T05:21:10;17.40;99.90
20845;DHT22;10583;49.084;8.646;2023-06-10T05:23:37;17.60;99.90
20845;DHT22;10583;49.084;8.646;2023-06-10T05:26:04;17.70;99.90
20845;DHT22;10583;49.084;8.646;2023-06-10T05:28:31;17.90;99.90
20845;DHT22;10583;49.084;8.646;2023-06-10T05:30:58;18.10;99.90
20845;DHT22;10583;49.084;8.646;2023-06-10T05:33:25;18.20;99.90
20845;DHT22;10583;49.084;8.646;2023-06-10T05:35:52;18.40;99.90
20845;DHT22;10583;49.084;8.646;2023-06-10T05:38:20;18.60;99.90
20845;DHT22;10583;49.084;8.646;2023-06-10T05:40:47;18.70;99.90
20845;DHT22;10583;49.084;8.646;2023-06-10T05:43:14;18.80;99.90
20845;DHT22;10583;49.084;8.646;2023-06-10T05:45:42;19.00;99.90
20845;DHT22;10583;49.084;8.646;2023-06-10T05:48:09;19.10;99.90
20845;DHT22;10583;49.084;8.646;2023-06-10T05:50:36;19.30;99.90
20845;DHT22;10583;49.084;8.646;2023-06-10T05:53:05;19.50;99.90
20845;DHT22;10583;49.084;8.646;2023-06-10T05:55:35;19.70;99.90
20845;DHT22;10583;49.084;8.646;2023-06-10T05:58:02;19.80;99.90
20845;DHT22;10583;49.084;8.646;2023-06-10T06:00:29;20.00;99.90
20845;DHT22;10583;49.084;8.646;2023-06-10T06:02:56;20.10;99.90
20845;DHT22;10583;49.084;8.646;2023-06-10T06:05:24;20.30;99.90
20845;DHT22;10583;49.084;8.646;2023-06-10T06:07:51;20.60;99.90
20845;DHT22;10583;49.084;8.646;2023-06-10T06:10:18;20.70;99.90
20845;DHT22;10583;49.084;8.646;2023-06-10T06:12:47;21.00;99.90
20845;DHT22;10583;49.084;8.646;2023-06-10T06:15:14;21.20;99.90
20845;DHT22;10583;49.084;8.646;2023-06-10T06:17:41;21.40;99.90
20845;DHT22;10583;49.084;8.646;2023-06-10T06:20:08;21.60;99.90
20845;DHT22;10583;49.084;8.646;2023-06-10T06:22:35;21.80;99.90
20845;DHT22;10583;49.084;8.646;2023-06-10T06:25:03;21.80;99.90
20845;DHT22;10583;49.084;8.646;2023-06-10T06:27:31;21.90;99.90
20845;DHT22;10583;49.084;8.646;2023-06-10T06:30:00;22.10;99.90
20845;DHT22;10583;49.084;8.646;2023-06-10T06:32:27;22.20;99.90
20845;DHT22;10583;49.084;8.646;2023-06-10T06:34:54;22.20;99.90
20845;DHT22;10583;49.084;8.646;2023-06-10T06:37:21;22.30;99.90
20845;DHT22;10583;49.084;8.646;2023-06-10T06:39:49;22.50;99.90
20845;DHT22;10583;49.084;8.646;2023-06-10T06:42:16;22.70;99.90
20845;DHT22;10583;49.084;8.646;2023-06-10T06:44:44;22.90;99.90
20845;DHT22;10583;49.084;8.646;2023-06-10T06:47:13;23.00;99.90
20845;DHT22;10583;49.084;8.646;2023-06-10T06:49:40;23.00;99.90
20845;DHT22;10583;49.084;8.646;2023-06-10T06:52:07;23.10;99.90
20845;DHT22;10583;49.084;8.646;2023-06-10T06:54:34;23.10;99.90
20845;DHT22;10583;49.084;8.646;2023-06-10T06:57:01;23.40;99.90
20845;DHT22;10583;49.084;8.646;2023-06-10T06:59:28;23.50;99.90
20845;DHT22;10583;49.084;8.646;2023-06-10T07:01:55;23.80;99.90
20845;DHT22;10583;49.084;8.646;2023-06-10T07:04:24;24.10;99.90
20845;DHT22;10583;49.084;8.646;2023-06-10T07:06:51;24.40;99.90
20845;DHT22;10583;49.084;8.646;2023-06-10T07:09:18;24.60;99.90
20845;DHT22;10583;49.084;8.646;2023-06-10T07:11:45;24.60;99.90
20845;DHT22;10583;49.084;8.646;2023-06-10T07:14:12;24.70;99.90
20845;DHT22;10583;49.084;8.646;2023-06-10T07:16:38;24.90;99.90
20845;DHT22;10583;49.084;8.646;2023-06-10T07:30:01;25.50;99.90
20845;DHT22;10583;49.084;8.646;2023-06-10T07:32:28;25.60;99.90
20845;DHT22;10583;49.084;8.646;2023-06-10T07:34:55;25.60;99.90
20845;DHT22;10583;49.084;8.646;2023-06-10T07:37:21;25.70;99.90
20845;DHT22;10583;49.084;8.646;2023-06-10T07:39:48;25.80;99.90
20845;DHT22;10583;49.084;8.646;2023-06-10T07:42:14;25.80;99.90
20845;DHT22;10583;49.084;8.646;2023-06-10T07:44:42;26.10;99.90
20845;DHT22;10583;49.084;8.646;2023-06-10T07:47:10;26.20;99.90
20845;DHT22;10583;49.084;8.646;2023-06-10T07:49:37;26.00;99.90
20845;DHT22;10583;49.084;8.646;2023-06-10T07:52:04;26.30;99.90
20845;DHT22;10583;49.084;8.646;2023-06-10T07:54:31;26.40;99.90
20845;DHT22;10583;49.084;8.646;2023-06-10T07:56:57;26.50;99.90
20845;DHT22;10583;49.084;8.646;2023-06-10T07:59:24;26.60;99.90
20845;DHT22;10583;49.084;8.646;2023-06-10T08:01:52;26.60;99.90
20845;DHT22;10583;49.084;8.646;2023-06-10T08:04:20;26.60;99.90
20845;DHT22;10583;49.084;8.646;2023-06-10T08:06:47;26.60;99.30
20845;DHT22;10583;49.084;8.646;2023-06-10T08:09:14;26.50;99.90
20845;DHT22;10583;49.084;8.646;2023-06-10T08:11:40;26.80;99.90
20845;DHT22;10583;49.084;8.646;2023-06-10T08:14:07;26.80;99.30
20845;DHT22;10583;49.084;8.646;2023-06-10T08:16:33;26.90;99.90
20845;DHT22;10583;49.084;8.646;2023-06-10T08:19:00;27.20;99.10
20845;DHT22;10583;49.084;8.646;2023-06-10T08:21:28;27.40;99.40
20845;DHT22;10583;49.084;8.646;2023-06-10T08:23:55;27.60;98.70
20845;DHT22;10583;49.084;8.646;2023-06-10T08:26:21;27.70;98.40
20845;DHT22;10583;49.084;8.646;2023-06-10T08:28:48;27.70;98.10
20845;DHT22;10583;49.084;8.646;2023-06-10T08:31:15;27.80;98.00
20845;DHT22;10583;49.084;8.646;2023-06-10T08:33:42;27.70;97.90
20845;DHT22;10583;49.084;8.646;2023-06-10T08:36:09;28.00;97.90
20845;DHT22;10583;49.084;8.646;2023-06-10T08:38:37;28.20;98.40
20845;DHT22;10583;49.084;8.646;2023-06-10T08:41:05;28.10;97.60
20845;DHT22;10583;49.084;8.646;2023-06-10T08:43:36;28.10;97.20
20845;DHT22;10583;49.084;8.646;2023-06-10T08:46:03;28.20;97.20
20845;DHT22;10583;49.084;8.646;2023-06-10T08:48:30;28.60;96.70
20845;DHT22;10583;49.084;8.646;2023-06-10T08:50:57;29.10;97.00
20845;DHT22;10583;49.084;8.646;2023-06-10T08:53:26;29.40;96.50
20845;DHT22;10583;49.084;8.646;2023-06-10T08:55:55;29.40;95.50
20845;DHT22;10583;49.084;8.646;2023-06-10T08:58:25;29.10;96.10
20845;DHT22;10583;49.084;8.646;2023-06-10T09:00:52;29.40;95.80
20845;DHT22;10583;49.084;8.646;2023-06-10T09:03:19;29.70;95.60
20845;DHT22;10583;49.084;8.646;2023-06-10T09:05:46;29.90;95.40
20845;DHT22;10583;49.084;8.646;2023-06-10T09:08:13;29.90;94.80
20845;DHT22;10583;49.084;8.646;2023-06-10T09:10:41;29.50;96.40
20845;DHT22;10583;49.084;8.646;2023-06-10T09:13:09;29.30;94.70
20845;DHT22;10583;49.084;8.646;2023-06-10T09:15:36;29.10;96.40
20845;DHT22;10583;49.084;8.646;2023-06-10T09:18:05;29.20;95.80
20845;DHT22;10583;49.084;8.646;2023-06-10T09:20:32;29.60;95.00
20845;DHT22;10583;49.084;8.646;2023-06-10T09:22:59;29.60;95.10
20845;DHT22;10583;49.084;8.646;2023-06-10T09:25:35;29.80;94.90
20845;DHT22;10583;49.084;8.646;2023-06-10T09:28:03;29.90;94.30
20845;DHT22;10583;49.084;8.646;2023-06-10T09:30:32;29.90;94.40
20845;DHT22;10583;49.084;8.646;2023-06-10T09:33:01;29.80;93.30
20845;DHT22;10583;49.084;8.646;2023-06-10T09:35:29;29.70;93.50
20845;DHT22;10583;49.084;8.646;2023-06-10T09:37:57;29.80;93.90
20845;DHT22;10583;49.084;8.646;2023-06-10T09:40:25;29.60;93.60
20845;DHT22;10583;49.084;8.646;2023-06-10T09:42:53;29.80;93.80
20845;DHT22;10583;49.084;8.646;2023-06-10T09:45:22;30.30;93.80
20845;DHT22;10583;49.084;8.646;2023-06-10T09:47:53;30.60;93.60
20845;DHT22;10583;49.084;8.646;2023-06-10T09:50:21;30.60;93.10
20845;DHT22;10583;49.084;8.646;2023-06-10T09:52:48;30.50;93.50
20845;DHT22;10583;49.084;8.646;2023-06-10T09:55:15;30.60;92.70
20845;DHT22;10583;49.084;8.646;2023-06-10T09:57:41;30.70;92.60
20845;DHT22;10583;49.084;8.646;2023-06-10T10:00:12;30.20;92.40
20845;DHT22;10583;49.084;8.646;2023-06-10T10:02:45;30.30;92.50
20845;DHT22;10583;49.084;8.646;2023-06-10T10:05:14;30.20;92.60
20845;DHT22;10583;49.084;8.646;2023-06-10T10:07:42;30.50;92.50
20845;DHT22;10583;49.084;8.646;2023-06-10T10:10:10;30.40;91.90
20845;DHT22;10583;49.084;8.646;2023-06-10T10:12:37;30.30;92.80
20845;DHT22;10583;49.084;8.646;2023-06-10T10:15:06;30.60;92.50
20845;DHT22;10583;49.084;8.646;2023-06-10T10:17:34;30.70;92.80
20845;DHT22;10583;49.084;8.646;2023-06-10T10:20:05;30.80;91.90
20845;DHT22;10583;49.084;8.646;2023-06-10T10:22:37;30.70;92.00
20845;DHT22;10583;49.084;8.646;2023-06-10T10:25:08;30.60;91.80
20845;DHT22;10583;49.084;8.646;2023-06-10T10:27:40;30.70;91.80
20845;DHT22;10583;49.084;8.646;2023-06-10T10:30:11;30.60;91.80
20845;DHT22;10583;49.084;8.646;2023-06-10T10:32:43;30.20;92.20
20845;DHT22;10583;49.084;8.646;2023-06-10T10:35:15;30.20;91.90
20845;DHT22;10583;49.084;8.646;2023-06-10T10:37:44;30.30;91.70
20845;DHT22;10583;49.084;8.646;2023-06-10T10:40:12;30.60;91.30
20845;DHT22;10583;49.084;8.646;2023-06-10T10:42:40;30.70;90.90
20845;DHT22;10583;49.084;8.646;2023-06-10T10:45:08;30.70;90.90
20845;DHT22;10583;49.084;8.646;2023-06-10T10:47:36;30.80;90.90
20845;DHT22;10583;49.084;8.646;2023-06-10T10:50:13;30.80;91.60
20845;DHT22;10583;49.084;8.646;2023-06-10T10:52:53;30.90;90.20
20845;DHT22;10583;49.084;8.646;2023-06-10T10:55:20;30.80;90.00
20845;DHT22;10583;49.084;8.646;2023-06-10T10:57:54;31.10;90.60
20845;DHT22;10583;49.084;8.646;2023-06-10T11:00:28;31.20;90.30
20845;DHT22;10583;49.084;8.646;2023-06-10T11:02:58;31.20;90.00
20845;DHT22;10583;49.084;8.646;2023-06-10T11:05:36;31.20;89.80
20845;DHT22;10583;49.084;8.646;2023-06-10T11:08:05;30.90;91.10
20845;DHT22;10583;49.084;8.646;2023-06-10T11:10:32;31.00;90.10
20845;DHT22;10583;49.084;8.646;2023-06-10T11:13:00;31.10;89.10
20845;DHT22;10583;49.084;8.646;2023-06-10T11:15:28;31.40;89.10
20845;DHT22;10583;49.084;8.646;2023-06-10T11:18:08;31.60;88.60
20845;DHT22;10583;49.084;8.646;2023-06-10T11:20:45;31.30;87.50
20845;DHT22;10583;49.084;8.646;2023-06-10T11:23:34;31.20;88.90
20845;DHT22;10583;49.084;8.646;2023-06-10T11:26:29;31.30;87.80
20845;DHT22;10583;49.084;8.646;2023-06-10T11:29:09;31.50;87.90
20845;DHT22;10583;49.084;8.646;2023-06-10T11:31:42;31.80;86.80
20845;DHT22;10583;49.084;8.646;2023-06-10T11:34:09;31.70;85.90
20845;DHT22;10583;49.084;8.646;2023-06-10T11:36:37;31.40;87.40
20845;DHT22;10583;49.084;8.646;2023-06-10T11:39:09;31.40;90.20
20845;DHT22;10583;49.084;8.646;2023-06-10T11:41:37;31.20;88.30
20845;DHT22;10583;49.084;8.646;2023-06-10T11:44:08;31.20;86.50
20845;DHT22;10583;49.084;8.646;2023-06-10T11:46:36;31.20;87.10
20845;DHT22;10583;49.084;8.646;2023-06-10T11:49:04;31.30;87.50
20845;DHT22;10583;49.084;8.646;2023-06-10T11:51:33;31.60;86.60
20845;DHT22;10583;49.084;8.646;2023-06-10T11:54:01;31.90;86.70
20845;DHT22;10583;49.084;8.646;2023-06-10T11:56:30;32.40;86.60
20845;DHT22;10583;49.084;8.646;2023-06-10T11:58:59;32.60;86.60
20845;DHT22;10583;49.084;8.646;2023-06-10T12:01:30;32.30;85.70
20845;DHT22;10583;49.084;8.646;2023-06-10T12:03:58;32.40;83.40
20845;DHT22;10583;49.084;8.646;2023-06-10T12:06:26;32.20;84.20
20845;DHT22;10583;49.084;8.646;2023-06-10T12:08:53;32.30;84.10
20845;DHT22;10583;49.084;8.646;2023-06-10T12:11:20;32.40;83.00
20845;DHT22;10583;49.084;8.646;2023-06-10T12:13:49;32.40;83.00
20845;DHT22;10583;49.084;8.646;2023-06-10T12:16:16;32.30;81.90
20845;DHT22;10583;49.084;8.646;2023-06-10T12:18:45;32.30;83.30
20845;DHT22;10583;49.084;8.646;2023-06-10T12:21:17;32.30;83.20
20845;DHT22;10583;49.084;8.646;2023-06-10T12:24:02;32.20;81.80
20845;DHT22;10583;49.084;8.646;2023-06-10T12:26:37;32.50;81.70
20845;DHT22;10583;49.084;8.646;2023-06-10T12:29:20;32.80;82.80
20845;DHT22;10583;49.084;8.646;2023-06-10T12:32:01;33.10;82.60
20845;DHT22;10583;49.084;8.646;2023-06-10T12:34:35;33.20;82.00
20845;DHT22;10583;49.084;8.646;2023-06-10T12:37:04;33.30;83.00
20845;DHT22;10583;49.084;8.646;2023-06-10T12:39:31;32.90;80.50
20845;DHT22;10583;49.084;8.646;2023-06-10T12:41:59;32.50;81.00
20845;DHT22;10583;49.084;8.646;2023-06-10T12:44:34;32.10;84.50
20845;DHT22;10583;49.084;8.646;2023-06-10T12:47:07;32.30;83.20
20845;DHT22;10583;49.084;8.646;2023-06-10T12:49:34;32.20;82.60
20845;DHT22;10583;49.084;8.646;2023-06-10T12:52:01;32.10;81.40
20845;DHT22;10583;49.084;8.646;2023-06-10T12:54:28;32.30;82.30
20845;DHT22;10583;49.084;8.646;2023-06-10T12:56:55;32.50;82.30
20845;DHT22;10583;49.084;8.646;2023-06-10T12:59:21;32.10;81.00
20845;DHT22;10583;49.084;8.646;2023-06-10T13:01:51;31.40;82.10
20845;DHT22;10583;49.084;8.646;2023-06-10T13:04:19;31.60;82.20
20845;DHT22;10583;49.084;8.646;2023-06-10T13:06:46;32.10;82.30
20845;DHT22;10583;49.084;8.646;2023-06-10T13:09:12;32.70;81.00
20845;DHT22;10583;49.084;8.646;2023-06-10T13:11:40;32.80;81.70
20845;DHT22;10583;49.084;8.646;2023-06-10T13:14:07;33.10;81.20
20845;DHT22;10583;49.084;8.646;2023-06-10T13:16:33;32.90;80.40
20845;DHT22;10583;49.084;8.646;2023-06-10T13:19:04;32.80;80.70
20845;DHT22;10583;49.084;8.646;2023-06-10T13:21:32;32.50;81.10
20845;DHT22;10583;49.084;8.646;2023-06-10T13:23:59;31.70;81.90
20845;DHT22;10583;49.084;8.646;2023-06-10T13:26:26;31.40;83.20
20845;DHT22;10583;49.084;8.646;2023-06-10T13:28:52;31.50;82.30
20845;DHT22;10583;49.084;8.646;2023-06-10T13:31:19;31.40;83.30
20845;DHT22;10583;49.084;8.646;2023-06-10T13:33:46;31.70;82.90
20845;DHT22;10583;49.084;8.646;2023-06-10T13:36:14;31.90;82.60
20845;DHT22;10583;49.084;8.646;2023-06-10T13:38:41;31.90;82.00
20845;DHT22;10583;49.084;8.646;2023-06-10T13:41:08;32.00;81.60
20845;DHT22;10583;49.084;8.646;2023-06-10T13:43:35;31.80;81.50
20845;DHT22;10583;49.084;8.646;2023-06-10T13:46:02;31.80;81.20
20845;DHT22;10583;49.084;8.646;2023-06-10T13:48:28;31.90;80.80
20845;DHT22;10583;49.084;8.646;2023-06-10T13:50:55;32.00;81.80
20845;DHT22;10583;49.084;8.646;2023-06-10T13:53:23;32.30;82.00
20845;DHT22;10583;49.084;8.646;2023-06-10T13:55:50;32.20;81.60
20845;DHT22;10583;49.084;8.646;2023-06-10T13:58:17;31.80;81.60
20845;DHT22;10583;49.084;8.646;2023-06-10T14:00:43;31.60;81.80
20845;DHT22;10583;49.084;8.646;2023-06-10T14:03:11;31.50;82.10
20845;DHT22;10583;49.084;8.646;2023-06-10T14:05:38;31.30;82.30
20845;DHT22;10583;49.084;8.646;2023-06-10T14:08:05;31.20;81.20
20845;DHT22;10583;49.084;8.646;2023-06-10T14:10:33;31.20;83.30
20845;DHT22;10583;49.084;8.646;2023-06-10T14:13:00;31.10;81.80
20845;DHT22;10583;49.084;8.646;2023-06-10T14:15:26;30.90;82.50
20845;DHT22;10583;49.084;8.646;2023-06-10T14:17:53;30.80;82.60
20845;DHT22;10583;49.084;8.646;2023-06-10T14:20:20;30.90;81.70
20845;DHT22;10583;49.084;8.646;2023-06-10T14:22:47;30.80;81.60
20845;DHT22;10583;49.084;8.646;2023-06-10T14:25:13;30.90;82.80
20845;DHT22;10583;49.084;8.646;2023-06-10T14:27:41;30.60;81.30
20845;DHT22;10583;49.084;8.646;2023-06-10T14:30:08;30.50;82.20
20845;DHT22;10583;49.084;8.646;2023-06-10T14:32:35;30.40;81.60
20845;DHT22;10583;49.084;8.646;2023-06-10T14:35:02;30.30;81.40
20845;DHT22;10583;49.084;8.646;2023-06-10T14:37:29;30.20;81.40
20845;DHT22;10583;49.084;8.646;2023-06-10T14:39:56;30.10;81.30
20845;DHT22;10583;49.084;8.646;2023-06-10T14:42:23;30.10;81.50
20845;DHT22;10583;49.084;8.646;2023-06-10T14:44:51;30.00;83.40
20845;DHT22;10583;49.084;8.646;2023-06-10T14:47:18;30.00;83.10
20845;DHT22;10583;49.084;8.646;2023-06-10T14:49:44;29.90;83.80
20845;DHT22;10583;49.084;8.646;2023-06-10T14:52:11;30.00;84.10
20845;DHT22;10583;49.084;8.646;2023-06-10T14:54:37;29.80;82.40
20845;DHT22;10583;49.084;8.646;2023-06-10T14:57:05;29.70;82.70
20845;DHT22;10583;49.084;8.646;2023-06-10T14:59:32;29.60;83.30
20845;DHT22;10583;49.084;8.646;2023-06-10T15:02:00;29.50;83.10
20845;DHT22;10583;49.084;8.646;2023-06-10T15:04:27;29.50;83.30
20845;DHT22;10583;49.084;8.646;2023-06-10T15:06:54;29.50;84.70
20845;DHT22;10583;49.084;8.646;2023-06-10T15:09:21;29.50;83.50
20845;DHT22;10583;49.084;8.646;2023-06-10T15:11:47;29.40;83.40
20845;DHT22;10583;49.084;8.646;2023-06-10T15:14:14;29.30;83.40
20845;DHT22;10583;49.084;8.646;2023-06-10T15:16:41;29.30;82.30
20845;DHT22;10583;49.084;8.646;2023-06-10T15:19:09;29.20;81.30
20845;DHT22;10583;49.084;8.646;2023-06-10T15:21:35;29.20;82.50
20845;DHT22;10583;49.084;8.646;2023-06-10T15:24:02;29.20;82.00
20845;DHT22;10583;49.084;8.646;2023-06-10T15:26:29;29.20;83.20
20845;DHT22;10583;49.084;8.646;2023-06-10T15:28:56;29.20;83.70
20845;DHT22;10583;49.084;8.646;2023-06-10T15:31:23;29.20;85.00
20845;DHT22;10583;49.084;8.646;2023-06-10T15:33:50;29.20;84.80
20845;DHT22;10583;49.084;8.646;2023-06-10T15:36:18;29.20;84.10
20845;DHT22;10583;49.084;8.646;2023-06-10T15:38:44;29.20;83.50
20845;DHT22;10583;49.084;8.646;2023-06-10T15:41:12;29.00;83.40
20845;DHT22;10583;49.084;8.646;2023-06-10T15:43:39;29.00;84.20
20845;DHT22;10583;49.084;8.646;2023-06-10T15:46:07;29.10;84.20